CheckWX is a tool to help pilots better visualize weather data.  It is not intended as a substitute for an official pre-flight weather briefing.

13:33:37 UTC

KMFR TAF
Rogue Valley International - Medford Airport
Medford, Oregon, USA
KMFR 191138Z 1912/2012 VRB02KT P6SM -SHRA SCT020 BKN040 BKN070 FM191500 23005KT P6SM -SHRA SCT020 BKN035 BKN070 FM191900 29008KT P6SM -SHRA SCT020 OVC030 FM192100 29010KT P6SM -SHRA BKN025 OVC050 FM200100 33010KT P6SM VCSH SCT030 OVC050 FM200700 VRB03KT 6SM BR OVC025

Nov-19@
12:00 UTC

Nov-19 @ 12:00 UTC

Nov-19@
15:00 UTC

Nov-19 @ 15:00 UTC

KMFR 191138Z 1912/2012 VRB02KT P6SM -SHRA SCT020 BKN040 BKN070
Wind
  • Variable at 2 KTS
Conditions
Light Rain
Cloud Levels
  • Scattered at 2,000' AGL
  • Broken at 4,000' AGL
  • Broken at 7,000' AGL

Nov-19@
15:00 UTC

Nov-19 @ 15:00 UTC

Nov-19@
19:00 UTC

Nov-19 @ 19:00 UTC

FM191500 23005KT P6SM -SHRA SCT020 BKN035 BKN070

From

From Standard forecast or significant change

Wind
  • 230° at 5 KTS
Conditions
Light Rain
Cloud Levels
  • Scattered at 2,000' AGL
  • Broken at 3,500' AGL
  • Broken at 7,000' AGL

Nov-19@
19:00 UTC

Nov-19 @ 19:00 UTC

Nov-19@
21:00 UTC

Nov-19 @ 21:00 UTC

FM191900 29008KT P6SM -SHRA SCT020 OVC030

From

From Standard forecast or significant change

Wind
  • 290° at 8 KTS
Conditions
Light Rain
Cloud Levels
  • Scattered at 2,000' AGL
  • Overcast at 3,000' AGL

Nov-19@
21:00 UTC

Nov-19 @ 21:00 UTC

Nov-20@
01:00 UTC

Nov-20 @ 01:00 UTC

FM192100 29010KT P6SM -SHRA BKN025 OVC050

From

From Standard forecast or significant change

Wind
  • 290° at 10 KTS
Conditions
Light Rain
Cloud Levels
  • Broken at 2,500' AGL
  • Overcast at 5,000' AGL

Nov-20@
01:00 UTC

Nov-20 @ 01:00 UTC

Nov-20@
07:00 UTC

Nov-20 @ 07:00 UTC

FM200100 33010KT P6SM VCSH SCT030 OVC050

From

From Standard forecast or significant change

Wind
  • 330° at 10 KTS
Cloud Levels
  • Scattered at 3,000' AGL
  • Overcast at 5,000' AGL

Nov-20@
07:00 UTC

Nov-20 @ 07:00 UTC

Nov-20@
12:00 UTC

Nov-20 @ 12:00 UTC

FM200700 VRB03KT 6SM BR OVC025

From

From Standard forecast or significant change

Wind
  • Variable at 3 KTS
Conditions
Mist
Cloud Levels
  • Overcast at 2,500' AGL